Flight Track Log - Related Links

Times and Time Zones

All times are in EDT time to prevent confusion due to time zone crossing. See the DAL2033 flight status page for this flight to view local times or setup timezone preferences in your user account.

Time Position Orientation Groundspeed Altitude Reporting Facility
EDT Latitude Longitude Course Direction KTS MPH feet Rate Location/Type
Thu 07:03:07 PM 42.7694 -73.8089 332° Northwest 169 194 1,300  Level Boston Center
Thu 07:04:38 PM 42.8458 -73.8644 332° Northwest 219 252 4,600 2,140 Climbing Boston Center
Thu 07:05:16 PM 42.8703 -73.8992 314° West 222 255 5,900 2,388 Climbing Boston Center
Thu 07:06:16 PM 42.9072 -73.9622 309° West 222 255 8,500 2,050 Climbing Boston Center
Thu 07:07:16 PM 42.9478 -74.0258 311° West 222 255 10,000 1,450 Climbing Boston Center
Thu 07:08:16 PM 42.9967 -74.1122 308° West 265 305 11,400 1,950 Climbing Boston Center
Thu 07:09:16 PM 43.0369 -74.2097 299° West 295 339 13,900 2,300 Climbing Boston Center
Thu 07:10:16 PM 42.9669 -74.2817 217° Southwest 256 295 16,000 1,800 Climbing Boston Center
Thu 07:11:16 PM 42.8672 -74.2617 172° South 279 321 17,500 1,250 Climbing Boston Center
Thu 07:12:16 PM 42.7492 -74.2186 165° South 390 449 18,500 1,700 Climbing Boston Center
Thu 07:13:16 PM 42.6308 -74.1783 166° South 420 483 20,900 1,700 Climbing Boston Center
Thu 07:14:16 PM 42.5086 -74.1356 166° South 435 501 21,900 1,050 Climbing Boston Center
Thu 07:15:16 PM 42.3800 -74.0900 165° South 457 526 23,000 1,250 Climbing Boston Center
Thu 07:16:16 PM 42.2472 -74.0444 166° South 476 548 24,400 1,500 Climbing Boston Center
Thu 07:17:16 PM 42.1139 -74.0578 184° South 483 556 26,000 950 Climbing Boston Center
Thu 07:18:16 PM 42.0039 -74.1500 212° Southwest 450 518 26,300 950 Climbing Boston Center
Thu 07:19:16 PM 41.8761 -74.1994 196° South 463 533 27,900 1,509 Climbing Boston Center
Thu 07:21:11 PM 41.6392 -74.1797 176° South 485 558 30,700 1,364 Climbing New York Center
Thu 07:22:12 PM 41.5108 -74.1536 171° South 473 544 31,900 992 Climbing New York Center
Thu 07:23:12 PM 41.3822 -74.1361 174° South 473 544 32,700 700 Climbing New York Center
Thu 07:24:12 PM 41.2531 -74.1381 181° South 468 539 33,300 650 Climbing New York Center
Thu 07:25:12 PM 41.1417 -74.2508 217° Southwest 444 511 34,000 356 Climbing New York Center
Thu 07:26:10 PM 41.0567 -74.3758 228° Southwest 440 506 34,000  Level New York Center
Thu 07:27:11 PM 40.9694 -74.5003 227° Southwest 451 519 34,000  Level New York Center
Thu 07:28:11 PM 40.8819 -74.6300 228° Southwest 469 540 34,000 -50 Level New York Center
Thu 07:29:12 PM 40.7922 -74.7564 227° Southwest 475 547 33,900  Descending New York Center
Thu 07:30:10 PM 40.7025 -74.8797 226° Southwest 475 547 34,000 51 Climbing New York Center
Thu 07:31:09 PM 40.6169 -75.0031 228° Southwest 475 547 34,000  Level New York Center
Thu 07:32:10 PM 40.5311 -75.1261 227° Southwest 475 547 34,000  Level New York Center
Thu 07:33:11 PM 40.4433 -75.2489 227° Southwest 475 547 34,000  Level New York Center
Thu 07:34:11 PM 40.3594 -75.3686 227° Southwest 470 541 34,000  Level New York Center
Thu 07:35:12 PM 40.2756 -75.4883 227° Southwest 464 534 34,000  Level New York Center
Thu 07:36:12 PM 40.2022 -75.6028 230° Southwest 459 528 34,000  Level New York Center
Thu 07:37:12 PM 40.1300 -75.7364 235° Southwest 454 522 34,000  Level New York Center
Thu 07:38:11 PM 40.0475 -75.8581 228° Southwest 454 522 34,000  Level New York Center
Thu 07:39:12 PM 39.9650 -75.9819 229° Southwest 454 522 34,000  Level New York Center
Thu 07:40:09 PM 39.8825 -76.1031 228° Southwest 460 529 34,000  Level New York Center
Thu 07:41:10 PM 39.7867 -76.2389 227° Southwest 469 540 34,000  Level New York Center
Thu 07:42:12 PM 39.7036 -76.3619 229° Southwest 469 540 34,000  Level New York Center
Thu 07:43:11 PM 39.6186 -76.4847 228° Southwest 464 534 34,000  Level New York Center
Thu 07:44:11 PM 39.5311 -76.6094 228° Southwest 469 540 34,000  Level New York Center
Thu 07:45:36 PM 39.4078 -76.7842 228° Southwest 468 539 34,000  Level Washington Center
Thu 07:46:37 PM 39.3231 -76.9061 228° Southwest 461 531 34,000  Level Washington Center
Thu 07:47:35 PM 39.2361 -77.0278 227° Southwest 461 531 34,000  Level Washington Center
Thu 07:48:36 PM 39.1514 -77.1467 227° Southwest 461 531 34,000  Level Washington Center
Thu 07:49:37 PM 39.0664 -77.2678 228° Southwest 461 531 34,000  Level Washington Center
Thu 07:50:37 PM 38.9792 -77.3886 227° Southwest 461 531 34,000  Level Washington Center
Thu 07:51:35 PM 38.8942 -77.5039 227° Southwest 461 531 34,000  Level Washington Center
Thu 07:52:36 PM 38.8217 -77.6006 226° Southwest 471 542 34,000  Level Washington Center
Thu 07:53:37 PM 38.7275 -77.7392 229° Southwest 476 548 34,000  Level Washington Center
Thu 07:54:38 PM 38.6419 -77.8617 228° Southwest 471 542 34,000  Level Washington Center
Thu 07:55:36 PM 38.5683 -77.9894 234° Southwest 465 535 34,000  Level Washington Center
Thu 07:56:37 PM 38.4908 -78.1197 233° Southwest 465 535 34,000  Level Washington Center
Thu 07:57:37 PM 38.4169 -78.2469 233° Southwest 460 529 34,000  Level Washington Center
Thu 07:58:36 PM 38.3411 -78.3767 233° Southwest 460 529 34,000  Level Washington Center
Thu 07:59:36 PM 38.2653 -78.5033 233° Southwest 460 529 34,000  Level Washington Center
Thu 08:00:37 PM 38.1953 -78.6275 234° Southwest 454 522 34,000  Level Washington Center
Thu 08:01:35 PM 38.1083 -78.7692 232° Southwest 454 522 34,000  Level Washington Center
Thu 08:02:35 PM 38.0319 -78.8978 233° Southwest 454 522 34,000  Level Washington Center
Thu 08:03:36 PM 37.9553 -79.0233 232° Southwest 454 522 34,000  Level Washington Center
Thu 08:04:35 PM 37.8833 -79.1333 230° Southwest 459 528 34,000  Level Washington Center
Thu 08:05:35 PM 37.7961 -79.2553 228° Southwest 459 528 34,000  Level Washington Center
Thu 08:06:35 PM 37.7089 -79.3744 227° Southwest 465 535 34,000  Level Washington Center
Thu 08:07:36 PM 37.6131 -79.5061 227° Southwest 471 542 34,000  Level Washington Center
Thu 08:08:37 PM 37.5344 -79.6144 228° Southwest 471 542 34,000  Level Washington Center
Thu 08:09:37 PM 37.4489 -79.7331 228° Southwest 478 550 34,000  Level Washington Center
Thu 08:10:35 PM 37.3569 -79.8561 227° Southwest 483 556 34,000  Level Washington Center
Thu 08:11:35 PM 37.2714 -79.9767 228° Southwest 477 549 34,000  Level Washington Center
Thu 08:13:02 PM 37.1356 -80.1622 227° Southwest 479 551 34,000  Level Atlanta Center
Thu 08:14:02 PM 37.0575 -80.2675 227° Southwest 479 551 34,000  Level Atlanta Center
Thu 08:15:02 PM 36.9714 -80.3861 228° Southwest 474 545 34,000  Level Atlanta Center
Thu 08:16:02 PM 36.8833 -80.5042 227° Southwest 468 539 34,000  Level Atlanta Center
Thu 08:17:02 PM 36.7847 -80.6306 226° Southwest 463 533 34,000  Level Atlanta Center
Thu 08:18:02 PM 36.7022 -80.7453 228° Southwest 458 527 34,000  Level Atlanta Center
Thu 08:19:02 PM 36.6114 -80.8578 225° Southwest 463 533 34,000  Level Atlanta Center
Thu 08:20:02 PM 36.5225 -80.9722 226° Southwest 457 526 34,000  Level Atlanta Center
Thu 08:21:02 PM 36.4358 -81.0917 228° Southwest 463 533 34,000  Level Atlanta Center
Thu 08:22:02 PM 36.3489 -81.2058 227° Southwest 458 527 34,000  Level Atlanta Center
Thu 08:23:02 PM 36.2578 -81.3250 227° Southwest 463 533 34,000  Level Atlanta Center
Thu 08:24:02 PM 36.1706 -81.4383 226° Southwest 463 533 34,000  Level Atlanta Center
Thu 08:25:02 PM 36.0811 -81.5544 226° Southwest 463 533 34,000  Level Atlanta Center
Thu 08:26:02 PM 35.9917 -81.6700 226° Southwest 458 527 34,000  Level Atlanta Center
Thu 08:27:02 PM 35.9019 -81.7881 227° Southwest 463 533 34,000  Level Atlanta Center
Thu 08:28:02 PM 35.8122 -81.9006 225° Southwest 458 527 34,000  Level Atlanta Center
Thu 08:29:02 PM 35.7244 -82.0153 227° Southwest 463 533 34,000  Level Atlanta Center
Thu 08:30:02 PM 35.6428 -82.1169 225° Southwest 463 533 34,000  Level Atlanta Center
Thu 08:31:02 PM 35.5547 -82.2264 225° Southwest 456 525 34,000 -150 Level Atlanta Center
Thu 08:32:02 PM 35.4667 -82.3406 227° Southwest 461 531 33,700 -600 Descending Atlanta Center
Thu 08:33:02 PM 35.3742 -82.4469 223° Southwest 461 531 32,800 -900 Descending Atlanta Center
Thu 08:34:02 PM 35.2775 -82.5556 223° Southwest 473 544 31,900 -900 Descending Atlanta Center
Thu 08:35:02 PM 35.1825 -82.6539 220° Southwest 461 531 31,000 -900 Descending Atlanta Center
Thu 08:36:02 PM 35.0897 -82.7594 223° Southwest 461 531 30,100 -800 Descending Atlanta Center
Thu 08:37:02 PM 34.9969 -82.8622 222° Southwest 461 531 29,400 -600 Descending Atlanta Center
Thu 08:38:02 PM 34.8894 -82.9778 221° Southwest 466 536 28,900 -500 Descending Atlanta Center
Thu 08:39:02 PM 34.7922 -83.0828 222° Southwest 466 536 28,400 -500 Descending Atlanta Center
Thu 08:40:02 PM 34.6950 -83.1850 221° Southwest 466 536 27,900 -1,000 Descending Atlanta Center
Thu 08:41:02 PM 34.5997 -83.2892 222° Southwest 461 531 26,400 -1,900 Descending Atlanta Center
Thu 08:42:02 PM 34.5064 -83.3883 221° Southwest 460 529 24,100 -2,050 Descending Atlanta Center
Thu 08:43:02 PM 34.4275 -83.4797 224° Southwest 450 518 22,300 -2,150 Descending Atlanta Center
Thu 08:44:02 PM 34.3361 -83.5733 220° Southwest 434 499 19,800 -2,300 Descending Atlanta Center
Thu 08:45:02 PM 34.2550 -83.6642 223° Southwest 418 481 17,700 -2,200 Descending Atlanta Center
Thu 08:46:02 PM 34.1739 -83.7500 221° Southwest 405 466 15,400 -1,850 Descending Atlanta Center
Thu 08:47:02 PM 34.0947 -83.8356 222° Southwest 391 450 14,000 -1,200 Descending Atlanta Center
Thu 08:48:02 PM 34.0167 -83.9333 226° Southwest 374 430 13,000 -1,000 Descending Atlanta TRACON
Thu 08:49:02 PM 33.9333 -84.0167 220° Southwest 367 422 12,000 -500 Descending Atlanta TRACON
Thu 08:50:02 PM 33.8500 -84.0833 214° Southwest 368 423 12,000  Level Atlanta TRACON
Thu 08:51:02 PM 33.7667 -84.1500 214° Southwest 334 384 12,000 50 Level Atlanta TRACON
Thu 08:52:02 PM 33.7333 -84.2167 239° Southwest 277 319 12,100 -300 Climbing Atlanta TRACON
Thu 08:53:02 PM 33.7333 -84.3167 270° West 259 298 11,400 -1,333 Descending Atlanta TRACON
Thu 08:54:08 PM 33.7333 -84.4000 270° West 250 288 9,300 -2,190 Descending Atlanta TRACON
Thu 08:55:08 PM 33.7333 -84.4833 270° West 241 277 6,800 -2,450 Descending Atlanta TRACON
Thu 08:56:08 PM 33.7333 -84.5667 270° West 233 268 4,400 -1,500 Descending Atlanta TRACON
Thu 08:57:08 PM 33.7000 -84.6000 220° Southwest 210 242 3,800 -600 Descending Atlanta TRACON

Login

Don't have an account? Register now (free) for customized features, flight alerts, and more!